Time;durP1;ratioP1;P1;durP2;ratioP2;P2;SDS_P1;SDS_P2;PMS_P1;PMS_P2;Temp;Humidity;BMP_temperature;BMP_pressure;BME280_temperature;BME280_humidity;BME280_pressure;Samples;Min_cycle;Max_cycle;Signal;HPM_P1;HPM_P2
2024/02/05 00:00:14;;;;;;;0.00;0.00;;;;;;;;;;5010091;28;20059;-88
2024/02/05 00:02:41;;;;;;;0.00;0.00;;;;;;;;;;5024276;28;20054;-88
2024/02/05 00:05:09;;;;;;;0.00;0.00;;;;;;;;;;5012405;28;20475;-87
2024/02/05 00:07:37;;;;;;;0.00;0.00;;;;;;;;;;5015953;28;20095;-88
2024/02/05 00:10:07;;;;;;;0.10;0.00;;;;;;;;;;5009446;28;20053;-88
2024/02/05 00:12:34;;;;;;;0.00;0.00;;;;;;;;;;5007854;28;20046;-88
2024/02/05 00:15:02;;;;;;;0.00;0.00;;;;;;;;;;5006050;28;20450;-87
2024/02/05 00:17:30;;;;;;;2.28;0.10;;;;;;;;;;5006757;28;20129;-89
2024/02/05 00:19:57;;;;;;;0.00;0.00;;;;;;;;;;5003876;28;20637;-88
2024/02/05 00:22:24;;;;;;;0.38;0.10;;;;;;;;;;5005228;28;20061;-87
2024/02/05 00:24:51;;;;;;;0.00;0.00;;;;;;;;;;5026387;28;20456;-87
2024/02/05 00:27:19;;;;;;;0.00;0.00;;;;;;;;;;5009078;28;20474;-90
2024/02/05 00:29:46;;;;;;;0.00;0.00;;;;;;;;;;5005928;28;20089;-86
2024/02/05 00:32:13;;;;;;;0.00;0.00;;;;;;;;;;5012060;28;20107;-87
2024/02/05 00:34:40;;;;;;;0.00;0.00;;;;;;;;;;5022501;28;20081;-88
2024/02/05 00:37:08;;;;;;;0.00;0.00;;;;;;;;;;5005090;28;20499;-87
2024/02/05 00:39:35;;;;;;;0.00;0.00;;;;;;;;;;5007246;28;20136;-88
2024/02/05 00:42:03;;;;;;;0.10;0.00;;;;;;;;;;5008748;28;20060;-88
2024/02/05 00:44:31;;;;;;;0.00;0.00;;;;;;;;;;5008541;28;20053;-88
2024/02/05 00:46:58;;;;;;;0.08;0.00;;;;;;;;;;5013238;28;20045;-88
2024/02/05 00:49:25;;;;;;;0.00;0.00;;;;;;;;;;5001905;28;20085;-88
2024/02/05 00:51:53;;;;;;;0.00;0.00;;;;;;;;;;4997107;28;20486;-88
2024/02/05 00:54:20;;;;;;;0.10;0.00;;;;;;;;;;5005332;28;20104;-87
2024/02/05 00:56:47;;;;;;;0.47;0.00;;;;;;;;;;5008116;28;20056;-88
2024/02/05 00:59:15;;;;;;;0.60;0.20;;;;;;;;;;5008548;28;20041;-88
2024/02/05 01:01:44;;;;;;;0.00;0.00;;;;;;;;;;5005676;28;20095;-87
2024/02/05 01:04:12;;;;;;;0.10;0.00;;;;;;;;;;5006826;28;20449;-88
2024/02/05 01:06:39;;;;;;;0.55;0.00;;;;;;;;;;5040203;28;20479;-86
2024/02/05 01:09:09;;;;;;;0.17;0.00;;;;;;;;;;5009068;28;20056;-87
2024/02/05 01:11:37;;;;;;;0.00;0.00;;;;;;;;;;5033543;28;20081;-88
2024/02/05 01:14:05;;;;;;;0.00;0.00;;;;;;;;;;5025489;28;20045;-86
2024/02/05 01:16:32;;;;;;;0.00;0.00;;;;;;;;;;5006574;28;20045;-87
2024/02/05 01:18:59;;;;;;;1.15;0.08;;;;;;;;;;5004820;28;20054;-87
2024/02/05 01:21:27;;;;;;;0.00;0.00;;;;;;;;;;5004990;28;20049;-88
2024/02/05 01:23:54;;;;;;;0.00;0.00;;;;;;;;;;5008143;28;20063;-88
2024/02/05 01:26:22;;;;;;;1.75;0.00;;;;;;;;;;5007702;28;20053;-88
2024/02/05 01:28:49;;;;;;;0.00;0.00;;;;;;;;;;5007878;28;20402;-88
2024/02/05 01:31:16;;;;;;;0.00;0.00;;;;;;;;;;5007877;28;20464;-88
2024/02/05 01:33:44;;;;;;;0.55;0.00;;;;;;;;;;5022050;28;20054;-89
2024/02/05 01:36:11;;;;;;;0.00;0.00;;;;;;;;;;5028074;28;20103;-87
2024/02/05 01:38:39;;;;;;;0.03;0.00;;;;;;;;;;5022125;28;20041;-88
2024/02/05 01:41:07;;;;;;;0.00;0.00;;;;;;;;;;5021788;28;20462;-88
2024/02/05 01:43:34;;;;;;;0.00;0.00;;;;;;;;;;5022716;28;20052;-88
2024/02/05 01:46:02;;;;;;;0.85;0.00;;;;;;;;;;5007463;28;20053;-88
2024/02/05 01:48:33;;;;;;;0.00;0.00;;;;;;;;;;5006998;28;20050;-89
2024/02/05 01:51:00;;;;;;;0.00;0.00;;;;;;;;;;5004311;28;20050;-88
2024/02/05 01:53:29;;;;;;;0.05;0.00;;;;;;;;;;5005104;28;20085;-88
2024/02/05 01:55:57;;;;;;;0.00;0.00;;;;;;;;;;5007205;28;20103;-89
2024/02/05 01:58:24;;;;;;;0.00;0.00;;;;;;;;;;5024559;28;20057;-88
2024/02/05 02:00:52;;;;;;;0.00;0.00;;;;;;;;;;5004535;28;20050;-88
2024/02/05 02:03:20;;;;;;;1.23;0.00;;;;;;;;;;5004108;28;20046;-88
2024/02/05 02:05:47;;;;;;;0.00;0.00;;;;;;;;;;5007509;28;20053;-88
2024/02/05 02:08:16;;;;;;;0.00;0.00;;;;;;;;;;5007607;28;20081;-88
2024/02/05 02:10:46;;;;;;;0.00;0.00;;;;;;;;;;5007482;28;20061;-88
2024/02/05 02:13:13;;;;;;;0.45;0.00;;;;;;;;;;5024006;28;20076;-88
2024/02/05 02:15:48;;;;;;;0.00;0.00;;;;;;;;;;5005242;28;20137;-88
2024/02/05 02:18:18;;;;;;;0.25;0.00;;;;;;;;;;5006115;28;20137;-88
2024/02/05 02:20:47;;;;;;;0.00;0.00;;;;;;;;;;5023113;28;20049;-88
2024/02/05 02:23:31;;;;;;;0.00;0.00;;;;;;;;;;5024997;28;20064;-88
2024/02/05 02:25:58;;;;;;;;;;;;;;;;;;5017361;28;20456;-88
2024/02/05 02:28:25;;;;;;;0.10;0.00;;;;;;;;;;5007300;28;19921;-88
2024/02/05 02:30:53;;;;;;;0.20;0.00;;;;;;;;;;5004080;28;20058;-88
2024/02/05 02:33:24;;;;;;;0.00;0.00;;;;;;;;;;5011379;28;20054;-88
2024/02/05 02:35:54;;;;;;;0.00;0.00;;;;;;;;;;5023210;28;20065;-89
2024/02/05 02:38:26;;;;;;;0.00;0.00;;;;;;;;;;5007496;28;20049;-88
2024/02/05 02:40:57;;;;;;;0.00;0.00;;;;;;;;;;5011805;28;20124;-89
2024/02/05 02:43:25;;;;;;;0.00;0.00;;;;;;;;;;5004849;28;20050;-86
2024/02/05 02:45:53;;;;;;;0.52;0.20;;;;;;;;;;5010693;28;20080;-88
2024/02/05 02:48:20;;;;;;;0.00;0.00;;;;;;;;;;5010944;28;20065;-89
2024/02/05 02:50:48;;;;;;;0.28;0.00;;;;;;;;;;5007527;28;20054;-88
2024/02/05 02:53:15;;;;;;;0.85;0.00;;;;;;;;;;5007620;28;20046;-88
2024/02/05 02:55:42;;;;;;;0.08;0.08;;;;;;;;;;5015214;28;20054;-89
2024/02/05 02:58:09;;;;;;;0.55;0.00;;;;;;;;;;5024503;28;20042;-90
2024/02/05 03:00:37;;;;;;;0.00;0.00;;;;;;;;;;5017080;28;20136;-88
2024/02/05 03:03:05;;;;;;;1.27;0.05;;;;;;;;;;5015267;28;20054;-88
2024/02/05 03:05:32;;;;;;;0.00;0.00;;;;;;;;;;5005261;28;20061;-88
2024/02/05 03:07:59;;;;;;;0.00;0.00;;;;;;;;;;5000423;28;20100;-88
2024/02/05 03:10:26;;;;;;;0.32;0.10;;;;;;;;;;5020956;28;20490;-88
2024/02/05 03:12:54;;;;;;;0.00;0.00;;;;;;;;;;5026744;28;20057;-88
2024/02/05 03:15:21;;;;;;;0.00;0.00;;;;;;;;;;5010377;28;20140;-88
2024/02/05 03:17:48;;;;;;;0.00;0.00;;;;;;;;;;5024133;28;20070;-88
2024/02/05 03:20:32;;;;;;;0.10;0.00;;;;;;;;;;5006896;28;20046;-88
2024/02/05 03:23:00;;;;;;;0.00;0.00;;;;;;;;;;5013079;28;20046;-87
2024/02/05 03:25:36;;;;;;;0.30;0.10;;;;;;;;;;5007746;28;20499;-89
2024/02/05 03:28:03;;;;;;;0.00;0.00;;;;;;;;;;5006305;28;20175;-88
2024/02/05 03:30:31;;;;;;;0.20;0.05;;;;;;;;;;5016067;28;20490;-89
2024/02/05 03:32:59;;;;;;;0.10;0.00;;;;;;;;;;5016921;28;20044;-88
2024/02/05 03:35:26;;;;;;;0.20;0.20;;;;;;;;;;5022142;28;20073;-88
2024/02/05 03:37:54;;;;;;;0.00;0.00;;;;;;;;;;5006575;28;20103;-88
2024/02/05 03:40:22;;;;;;;0.10;0.10;;;;;;;;;;5006400;28;20054;-88
2024/02/05 03:42:50;;;;;;;0.65;0.10;;;;;;;;;;5006496;28;20056;-89
2024/02/05 03:45:18;;;;;;;1.92;0.10;;;;;;;;;;5002499;28;20054;-88
2024/02/05 03:47:45;;;;;;;1.05;0.10;;;;;;;;;;5016706;28;20076;-88
2024/02/05 03:50:13;;;;;;;0.38;0.10;;;;;;;;;;5003531;28;20054;-88
2024/02/05 03:52:45;;;;;;;0.80;0.10;;;;;;;;;;5009047;28;20054;-88
2024/02/05 03:55:13;;;;;;;0.10;0.10;;;;;;;;;;5009548;28;20054;-88
2024/02/05 03:57:42;;;;;;;0.10;0.10;;;;;;;;;;5023317;28;20072;-87
2024/02/05 04:00:11;;;;;;;0.57;0.20;;;;;;;;;;5006714;28;20054;-88
2024/02/05 04:02:41;;;;;;;0.10;0.10;;;;;;;;;;5008136;28;20081;-88
2024/02/05 04:05:09;;;;;;;0.85;0.30;;;;;;;;;;5009222;28;20068;-89
2024/02/05 04:07:36;;;;;;;0.30;0.30;;;;;;;;;;5009173;28;20054;-89
2024/02/05 04:10:04;;;;;;;1.40;0.17;;;;;;;;;;5009450;28;20103;-88
2024/02/05 04:12:32;;;;;;;0.95;0.20;;;;;;;;;;5008087;28;20069;-89
2024/02/05 04:14:59;;;;;;;0.20;0.08;;;;;;;;;;5006024;28;20046;-89
2024/02/05 04:17:26;;;;;;;2.05;0.20;;;;;;;;;;5005980;28;20056;-91
2024/02/05 04:19:54;;;;;;;0.32;0.10;;;;;;;;;;5009231;28;20060;-89
2024/02/05 04:22:21;;;;;;;2.33;0.20;;;;;;;;;;5025202;28;20119;-89
2024/02/05 04:24:48;;;;;;;0.28;0.20;;;;;;;;;;5013496;28;20104;-88
2024/02/05 04:27:16;;;;;;;0.52;0.10;;;;;;;;;;5005834;28;20046;-88
2024/02/05 04:29:44;;;;;;;0.20;0.20;;;;;;;;;;5005716;28;20457;-89
2024/02/05 04:32:11;;;;;;;0.65;0.20;;;;;;;;;;5005362;28;20060;-88
2024/02/05 04:34:38;;;;;;;1.02;0.30;;;;;;;;;;5005969;28;20060;-88
2024/02/05 04:37:06;;;;;;;0.40;0.40;;;;;;;;;;5025107;28;20068;-89
2024/02/05 04:39:33;;;;;;;0.80;0.50;;;;;;;;;;5007693;28;20107;-88
2024/02/05 04:42:01;;;;;;;0.73;0.20;;;;;;;;;;5005514;28;20104;-88
2024/02/05 04:44:28;;;;;;;1.00;0.30;;;;;;;;;;5005920;28;20054;-88
2024/02/05 04:46:55;;;;;;;2.50;0.65;;;;;;;;;;5032971;28;20030;-90
2024/02/05 04:49:22;;;;;;;0.25;0.13;;;;;;;;;;5020086;28;20046;-88
2024/02/05 04:51:50;;;;;;;0.98;0.20;;;;;;;;;;5009181;28;20052;-88
2024/02/05 04:54:18;;;;;;;0.90;0.20;;;;;;;;;;5009408;28;20052;-88
2024/02/05 04:56:46;;;;;;;0.35;0.20;;;;;;;;;;5007928;28;20054;-88
2024/02/05 04:59:13;;;;;;;1.75;0.50;;;;;;;;;;5008602;28;20049;-88
2024/02/05 05:01:40;;;;;;;1.75;0.30;;;;;;;;;;5006217;28;20107;-88
2024/02/05 05:04:08;;;;;;;1.00;0.20;;;;;;;;;;5005581;28;20483;-89
2024/02/05 05:06:35;;;;;;;2.50;0.38;;;;;;;;;;5012293;28;20144;-88
2024/02/05 05:09:02;;;;;;;0.80;0.38;;;;;;;;;;5025216;28;20409;-89
2024/02/05 05:11:29;;;;;;;1.23;0.50;;;;;;;;;;5008343;28;20041;-88
2024/02/05 05:13:57;;;;;;;0.55;0.50;;;;;;;;;;5008275;28;20461;-89
2024/02/05 05:16:24;;;;;;;2.78;0.32;;;;;;;;;;5008135;28;20045;-88
2024/02/05 05:18:51;;;;;;;1.10;0.30;;;;;;;;;;5005360;28;20474;-91
2024/02/05 05:21:19;;;;;;;2.13;0.57;;;;;;;;;;5005333;28;20045;-89
2024/02/05 05:23:46;;;;;;;3.00;2.10;;;;;;;;;;5007979;28;20073;-88
2024/02/05 05:26:13;;;;;;;2.10;1.10;;;;;;;;;;5008076;28;20054;-89
2024/02/05 05:28:43;;;;;;;7.35;5.82;;;;;;;;;;5005515;28;20076;-88
2024/02/05 05:31:12;;;;;;;6.43;2.55;;;;;;;;;;5005251;28;20058;-89
2024/02/05 05:33:39;;;;;;;2.45;1.42;;;;;;;;;;5006954;28;20053;-89
2024/02/05 05:36:07;;;;;;;2.08;0.43;;;;;;;;;;5008479;28;20073;-88
2024/02/05 05:38:34;;;;;;;1.70;0.85;;;;;;;;;;5010939;28;20107;-89
2024/02/05 05:41:03;;;;;;;1.45;0.60;;;;;;;;;;5004763;28;20046;-89
2024/02/05 05:43:30;;;;;;;0.68;0.60;;;;;;;;;;5004667;28;20046;-87
2024/02/05 05:45:58;;;;;;;2.30;0.65;;;;;;;;;;5004397;28;20058;-89
2024/02/05 05:48:25;;;;;;;1.45;0.57;;;;;;;;;;5001690;28;20054;-88
2024/02/05 05:50:52;;;;;;;1.65;0.47;;;;;;;;;;5008832;28;20061;-88
2024/02/05 05:53:19;;;;;;;2.47;0.70;;;;;;;;;;5012677;28;20080;-88
2024/02/05 05:55:51;;;;;;;2.55;0.63;;;;;;;;;;5007363;28;20053;-89
2024/02/05 05:58:19;;;;;;;3.15;1.15;;;;;;;;;;5008023;28;20113;-88
2024/02/05 06:00:46;;;;;;;3.65;0.80;;;;;;;;;;5011889;28;20046;-86
2024/02/05 06:03:15;;;;;;;1.38;0.77;;;;;;;;;;5015024;28;20050;-89
2024/02/05 06:05:45;;;;;;;3.28;1.00;;;;;;;;;;5007328;28;20058;-88
2024/02/05 06:08:13;;;;;;;1.88;0.88;;;;;;;;;;5007827;28;20100;-88
2024/02/05 06:10:42;;;;;;;2.67;0.80;;;;;;;;;;5007583;28;20061;-89
2024/02/05 06:13:10;;;;;;;3.30;0.90;;;;;;;;;;5008227;28;20045;-89
2024/02/05 06:15:37;;;;;;;1.98;0.70;;;;;;;;;;5012513;28;20057;-90
2024/02/05 06:18:04;;;;;;;3.85;1.00;;;;;;;;;;5004902;28;20053;-87
2024/02/05 06:20:32;;;;;;;1.73;0.77;;;;;;;;;;5009699;28;20054;-89
2024/02/05 06:22:59;;;;;;;1.73;0.80;;;;;;;;;;5011801;28;20152;-88
2024/02/05 06:25:26;;;;;;;3.28;0.75;;;;;;;;;;5010360;28;20107;-88
2024/02/05 06:27:54;;;;;;;2.72;0.80;;;;;;;;;;5007605;28;20054;-89
2024/02/05 06:30:21;;;;;;;4.07;0.60;;;;;;;;;;5008149;28;20052;-88
2024/02/05 06:32:49;;;;;;;1.33;0.68;;;;;;;;;;5007955;28;20490;-88
2024/02/05 06:35:16;;;;;;;4.30;0.70;;;;;;;;;;5007035;28;20062;-88
2024/02/05 06:37:43;;;;;;;1.40;0.55;;;;;;;;;;5007918;28;20516;-89
2024/02/05 06:40:11;;;;;;;3.03;0.70;;;;;;;;;;5007800;28;20062;-89
2024/02/05 06:42:38;;;;;;;4.80;0.98;;;;;;;;;;5015860;28;20050;-89
2024/02/05 06:45:07;;;;;;;1.17;0.40;;;;;;;;;;5013292;28;20053;-89
2024/02/05 06:47:35;;;;;;;3.80;0.82;;;;;;;;;;5027186;28;20103;-88
2024/02/05 06:50:02;;;;;;;2.47;0.50;;;;;;;;;;5027916;28;20053;-89
2024/02/05 06:52:29;;;;;;;1.75;0.60;;;;;;;;;;5010550;28;20453;-88
2024/02/05 06:54:57;;;;;;;1.13;0.63;;;;;;;;;;5007862;28;20061;-88
2024/02/05 06:57:24;;;;;;;3.70;0.88;;;;;;;;;;5007511;28;20057;-88
2024/02/05 06:59:51;;;;;;;1.95;0.70;;;;;;;;;;5010884;28;20410;-89
2024/02/05 07:02:18;;;;;;;3.83;0.77;;;;;;;;;;5027792;28;20056;-89
2024/02/05 07:04:47;;;;;;;5.97;0.80;;;;;;;;;;5010784;28;20056;-88
2024/02/05 07:07:14;;;;;;;1.17;0.50;;;;;;;;;;5028115;28;20437;-88
2024/02/05 07:09:42;;;;;;;3.05;0.57;;;;;;;;;;5008551;28;20211;-89
2024/02/05 07:12:09;;;;;;;1.17;0.40;;;;;;;;;;5007474;28;20050;-89
2024/02/05 07:14:37;;;;;;;1.35;0.52;;;;;;;;;;5014164;28;20038;-88
2024/02/05 07:17:04;;;;;;;3.83;0.70;;;;;;;;;;5022273;28;20052;-89
2024/02/05 07:19:31;;;;;;;0.73;0.40;;;;;;;;;;5015324;28;20124;-89
2024/02/05 07:21:59;;;;;;;1.58;0.60;;;;;;;;;;5008263;28;20080;-88
2024/02/05 07:24:26;;;;;;;2.20;0.40;;;;;;;;;;5004245;28;20054;-88
2024/02/05 07:26:53;;;;;;;2.42;0.90;;;;;;;;;;5011002;28;20045;-88
2024/02/05 07:29:20;;;;;;;2.03;0.95;;;;;;;;;;5018207;28;20057;-89
2024/02/05 07:31:48;;;;;;;3.20;0.52;;;;;;;;;;5023528;28;20054;-88
2024/02/05 07:34:15;;;;;;;2.05;0.60;;;;;;;;;;5006235;28;20082;-89
2024/02/05 07:36:42;;;;;;;0.70;0.50;;;;;;;;;;5009065;28;20053;-88
2024/02/05 07:39:12;;;;;;;1.95;0.60;;;;;;;;;;5010446;28;20472;-88
2024/02/05 07:41:39;;;;;;;1.85;0.73;;;;;;;;;;5007891;28;20468;-89
2024/02/05 07:44:07;;;;;;;2.67;0.90;;;;;;;;;;5029569;28;20442;-89
2024/02/05 07:46:34;;;;;;;5.45;1.00;;;;;;;;;;5008362;28;20081;-90
2024/02/05 07:49:01;;;;;;;4.05;0.80;;;;;;;;;;5006855;28;20088;-89
2024/02/05 07:51:29;;;;;;;1.45;0.80;;;;;;;;;;5007200;28;20053;-89
2024/02/05 07:53:57;;;;;;;2.15;0.75;;;;;;;;;;5027168;28;20049;-88
2024/02/05 07:56:24;;;;;;;3.65;0.90;;;;;;;;;;5026045;28;20132;-89
2024/02/05 07:58:52;;;;;;;4.28;1.35;;;;;;;;;;5026034;28;20108;-88
2024/02/05 08:01:19;;;;;;;3.60;1.02;;;;;;;;;;5026750;28;20100;-89
2024/02/05 08:03:46;;;;;;;6.40;1.10;;;;;;;;;;5001284;28;20049;-89
2024/02/05 08:06:18;;;;;;;3.53;0.90;;;;;;;;;;5009472;28;20045;-88
2024/02/05 08:08:46;;;;;;;4.95;1.10;;;;;;;;;;5023914;28;20055;-90
2024/02/05 08:11:13;;;;;;;5.00;1.25;;;;;;;;;;5013236;28;20107;-88
2024/02/05 08:13:40;;;;;;;4.15;1.45;;;;;;;;;;5023460;28;20480;-90
2024/02/05 08:16:08;;;;;;;6.50;1.60;;;;;;;;;;5005861;28;20058;-87
2024/02/05 08:18:36;;;;;;;7.68;1.75;;;;;;;;;;5007782;28;20391;-88
2024/02/05 08:21:03;;;;;;;8.32;1.60;;;;;;;;;;5025574;28;20072;-88
2024/02/05 08:23:30;;;;;;;8.00;1.45;;;;;;;;;;5014192;28;20045;-88
2024/02/05 08:25:57;;;;;;;5.45;1.10;;;;;;;;;;5023291;28;20569;-88
2024/02/05 08:28:25;;;;;;;8.18;1.70;;;;;;;;;;5009073;28;20042;-87
2024/02/05 08:30:52;;;;;;;5.32;1.60;;;;;;;;;;5038335;28;20109;-91
2024/02/05 08:33:19;;;;;;;3.97;1.27;;;;;;;;;;5010939;28;20045;-88
2024/02/05 08:35:47;;;;;;;7.57;1.40;;;;;;;;;;5018437;28;20415;-88
2024/02/05 08:38:14;;;;;;;5.93;1.17;;;;;;;;;;5002620;28;20384;-89
2024/02/05 08:40:42;;;;;;;6.88;1.30;;;;;;;;;;5013034;28;20097;-89
2024/02/05 08:43:09;;;;;;;4.93;1.48;;;;;;;;;;5006986;28;20101;-87
2024/02/05 08:45:36;;;;;;;7.93;1.63;;;;;;;;;;5006318;28;20056;-87
2024/02/05 08:48:04;;;;;;;3.88;1.15;;;;;;;;;;5005496;28;20052;-88
2024/02/05 08:50:33;;;;;;;8.32;1.35;;;;;;;;;;5005635;28;20057;-89
2024/02/05 08:53:01;;;;;;;5.07;1.60;;;;;;;;;;5005909;28;20061;-93
2024/02/05 08:55:28;;;;;;;9.05;1.42;;;;;;;;;;5005964;28;20054;-89
2024/02/05 08:57:56;;;;;;;4.18;1.48;;;;;;;;;;5002009;28;20046;-88
2024/02/05 09:00:23;;;;;;;6.38;1.35;;;;;;;;;;5002845;28;20054;-89
2024/02/05 09:02:53;;;;;;;6.93;1.58;;;;;;;;;;5006191;28;20046;-88
2024/02/05 09:05:21;;;;;;;6.35;1.25;;;;;;;;;;5021763;28;20049;-92
2024/02/05 09:08:05;;;;;;;5.13;1.20;;;;;;;;;;5001504;28;20062;-88
2024/02/05 09:10:32;;;;;;;5.30;1.65;;;;;;;;;;5011501;28;20052;-90
2024/02/05 09:12:59;;;;;;;4.93;1.48;;;;;;;;;;5005462;28;20561;-87
2024/02/05 09:15:27;;;;;;;6.03;1.50;;;;;;;;;;5004715;28;20053;-89
2024/02/05 09:17:54;;;;;;;8.13;1.63;;;;;;;;;;5006218;28;20498;-88
2024/02/05 09:20:22;;;;;;;7.30;1.60;;;;;;;;;;5020778;28;20080;-90
2024/02/05 09:22:49;;;;;;;9.10;1.67;;;;;;;;;;5001391;28;20440;-88
2024/02/05 09:25:16;;;;;;;7.20;1.20;;;;;;;;;;4997257;28;20547;-88
2024/02/05 09:27:44;;;;;;;6.63;1.30;;;;;;;;;;5009570;28;20054;-87
2024/02/05 09:30:11;;;;;;;4.93;1.45;;;;;;;;;;5001731;28;20069;-86
2024/02/05 09:32:38;;;;;;;5.95;1.40;;;;;;;;;;5004437;28;20050;-87
2024/02/05 09:35:06;;;;;;;5.20;1.20;;;;;;;;;;5004214;28;20049;-88
2024/02/05 09:37:33;;;;;;;4.60;1.20;;;;;;;;;;5005266;28;20050;-88
2024/02/05 09:40:00;;;;;;;3.35;1.30;;;;;;;;;;5020655;28;20073;-90
2024/02/05 09:42:28;;;;;;;4.70;0.98;;;;;;;;;;5008101;28;20053;-88
2024/02/05 09:44:55;;;;;;;6.93;1.52;;;;;;;;;;5011863;28;20042;-87
2024/02/05 09:47:23;;;;;;;6.35;1.20;;;;;;;;;;5009435;28;20057;-88
2024/02/05 09:49:50;;;;;;;5.50;1.00;;;;;;;;;;5001484;28;20054;-89
2024/02/05 09:52:17;;;;;;;5.22;1.10;;;;;;;;;;5002797;28;20049;-88
2024/02/05 09:54:46;;;;;;;7.38;1.33;;;;;;;;;;5009814;28;20145;-91
2024/02/05 09:57:15;;;;;;;5.88;1.27;;;;;;;;;;5011226;28;20142;-88
2024/02/05 09:59:42;;;;;;;4.53;0.82;;;;;;;;;;5008910;28;20092;-88
2024/02/05 10:02:11;;;;;;;5.90;1.20;;;;;;;;;;5007357;28;20053;-88
2024/02/05 10:04:43;;;;;;;2.90;1.27;;;;;;;;;;5009881;28;20430;-88
2024/02/05 10:07:15;;;;;;;7.97;1.38;;;;;;;;;;5010921;28;20058;-87
2024/02/05 10:09:43;;;;;;;5.53;1.52;;;;;;;;;;5008143;28;20406;-88
2024/02/05 10:12:11;;;;;;;6.70;2.05;;;;;;;;;;5007633;28;20533;-87
2024/02/05 10:14:40;;;;;;;3.90;1.15;;;;;;;;;;5007391;28;20073;-87
2024/02/05 10:17:08;;;;;;;5.95;1.70;;;;;;;;;;5007505;28;20053;-88
2024/02/05 10:19:35;;;;;;;6.53;1.20;;;;;;;;;;5008878;28;20042;-88
2024/02/05 10:22:04;;;;;;;3.97;1.40;;;;;;;;;;5011026;28;20096;-90
2024/02/05 10:24:34;;;;;;;6.15;1.40;;;;;;;;;;5009851;28;20042;-89
2024/02/05 10:27:01;;;;;;;10.07;1.67;;;;;;;;;;5007203;28;20514;-88
2024/02/05 10:29:28;;;;;;;5.95;1.58;;;;;;;;;;5007789;28;20475;-87
2024/02/05 10:31:58;;;;;;;5.25;1.30;;;;;;;;;;5011002;28;20046;-91
2024/02/05 10:34:26;;;;;;;7.72;1.40;;;;;;;;;;5015272;28;20499;-87
2024/02/05 10:36:54;;;;;;;4.78;1.17;;;;;;;;;;5026774;28;20052;-89
2024/02/05 10:39:26;;;;;;;8.32;1.80;;;;;;;;;;5027230;28;20474;-87
2024/02/05 10:41:54;;;;;;;7.22;1.77;;;;;;;;;;5018901;28;20096;-87
2024/02/05 10:44:22;;;;;;;6.18;1.35;;;;;;;;;;5011475;28;20518;-87
2024/02/05 10:47:06;;;;;;;5.50;1.50;;;;;;;;;;5010876;28;20049;-87
2024/02/05 10:49:34;;;;;;;7.68;1.58;;;;;;;;;;5008574;28;20050;-87
2024/02/05 10:52:04;;;;;;;5.85;1.58;;;;;;;;;;5006525;28;20050;-87
2024/02/05 10:54:38;;;;;;;5.35;1.38;;;;;;;;;;5008521;28;20050;-89
2024/02/05 10:57:07;;;;;;;7.65;1.48;;;;;;;;;;5021529;28;20053;-87
2024/02/05 10:59:34;;;;;;;8.73;2.00;;;;;;;;;;5031322;28;20112;-90
2024/02/05 11:02:06;;;;;;;8.60;1.83;;;;;;;;;;5007336;28;20558;-88
2024/02/05 11:04:33;;;;;;;6.00;1.77;;;;;;;;;;5004593;28;20479;-87
2024/02/05 11:07:02;;;;;;;8.77;1.77;;;;;;;;;;5003262;28;20050;-87
2024/02/05 11:09:30;;;;;;;9.23;1.98;;;;;;;;;;5012493;28;20054;-87
2024/02/05 11:12:02;;;;;;;8.02;1.70;;;;;;;;;;5006875;28;20056;-87
2024/02/05 11:14:33;;;;;;;8.23;1.65;;;;;;;;;;5006794;28;20097;-87
2024/02/05 11:17:02;;;;;;;8.23;1.65;;;;;;;;;;5003691;28;20050;-88
2024/02/05 11:19:32;;;;;;;7.43;1.58;;;;;;;;;;5005707;28;20487;-87
2024/02/05 11:22:00;;;;;;;4.63;1.58;;;;;;;;;;5007123;28;20050;-87
2024/02/05 11:24:31;;;;;;;10.32;2.00;;;;;;;;;;5006298;28;20053;-89
2024/02/05 11:26:59;;;;;;;9.27;1.85;;;;;;;;;;5006409;28;20046;-88
2024/02/05 11:29:33;;;;;;;7.30;1.92;;;;;;;;;;5006636;28;20054;-91
2024/02/05 11:32:01;;;;;;;5.75;1.60;;;;;;;;;;5003472;28;20054;-87
2024/02/05 11:34:35;;;;;;;8.98;1.70;;;;;;;;;;5003656;28;20470;-87
2024/02/05 11:37:28;;;;;;;8.60;1.65;;;;;;;;;;5007470;28;20081;-88
2024/02/05 11:39:56;;;;;;;14.38;2.67;;;;;;;;;;5000874;28;20054;-87
2024/02/05 11:42:24;;;;;;;11.05;1.88;;;;;;;;;;5002859;28;20047;-87
2024/02/05 11:44:53;;;;;;;6.10;1.70;;;;;;;;;;5011504;28;20046;-87
2024/02/05 11:47:23;;;;;;;12.00;2.63;;;;;;;;;;5002676;28;20056;-87
2024/02/05 11:49:52;;;;;;;5.38;1.52;;;;;;;;;;5006970;28;20050;-88
2024/02/05 11:52:19;;;;;;;4.65;1.75;;;;;;;;;;5018780;28;20050;-88
2024/02/05 11:54:47;;;;;;;4.28;1.52;;;;;;;;;;5003275;28;20050;-91
2024/02/05 11:57:15;;;;;;;4.70;1.58;;;;;;;;;;5003056;28;20106;-88
2024/02/05 11:59:42;;;;;;;13.18;2.97;;;;;;;;;;5010550;28;20049;-89
2024/02/05 12:02:09;;;;;;;8.02;1.75;;;;;;;;;;5002916;28;20057;-89
2024/02/05 12:04:38;;;;;;;8.10;1.60;;;;;;;;;;5004725;28;20054;-89
2024/02/05 12:07:05;;;;;;;7.63;2.35;;;;;;;;;;5005903;28;20479;-88
2024/02/05 12:09:34;;;;;;;11.55;1.83;;;;;;;;;;5013827;28;20073;-89
2024/02/05 12:12:01;;;;;;;4.75;1.88;;;;;;;;;;5014429;28;20065;-88
2024/02/05 12:14:38;;;;;;;5.65;1.63;;;;;;;;;;5006168;28;20046;-88
2024/02/05 12:17:11;;;;;;;7.57;1.65;;;;;;;;;;5004808;28;20053;-88
2024/02/05 12:19:39;;;;;;;8.82;1.90;;;;;;;;;;5005540;28;20057;-89
2024/02/05 12:22:06;;;;;;;6.85;1.63;;;;;;;;;;5010585;28;20050;-89
2024/02/05 12:24:34;;;;;;;10.05;2.42;;;;;;;;;;5000241;28;20046;-88
2024/02/05 12:27:02;;;;;;;9.90;2.17;;;;;;;;;;4995696;28;20392;-88
2024/02/05 12:29:29;;;;;;;12.63;2.20;;;;;;;;;;5003795;28;20053;-88
2024/02/05 12:32:03;;;;;;;10.75;2.10;;;;;;;;;;5009936;28;20112;-87
2024/02/05 12:34:31;;;;;;;12.25;1.85;;;;;;;;;;5009436;28;20057;-88
2024/02/05 12:36:59;;;;;;;8.68;1.90;;;;;;;;;;5005519;28;20046;-88
2024/02/05 12:39:26;;;;;;;9.70;1.98;;;;;;;;;;5013889;28;20482;-87
2024/02/05 12:41:54;;;;;;;9.52;1.65;;;;;;;;;;5008244;28;20053;-87
2024/02/05 12:44:21;;;;;;;7.63;1.90;;;;;;;;;;5023795;28;20077;-88
2024/02/05 12:47:04;;;;;;;4.85;1.40;;;;;;;;;;5005613;28;20560;-87
2024/02/05 12:49:31;;;;;;;8.50;1.85;;;;;;;;;;5023401;28;20114;-88
2024/02/05 12:51:59;;;;;;;5.85;1.90;;;;;;;;;;5005059;28;20053;-87
2024/02/05 12:54:29;;;;;;;8.35;2.08;;;;;;;;;;5022402;28;20056;-87
2024/02/05 12:56:56;;;;;;;9.90;1.92;;;;;;;;;;5033266;28;20054;-86
2024/02/05 12:59:24;;;;;;;6.78;2.00;;;;;;;;;;5025202;28;20505;-87
2024/02/05 13:01:54;;;;;;;13.73;2.08;;;;;;;;;;5004783;28;20046;-88
2024/02/05 13:04:27;;;;;;;6.30;1.95;;;;;;;;;;5005190;28;20054;-89
2024/02/05 13:07:08;;;;;;;5.78;1.60;;;;;;;;;;5004911;28;20522;-88
2024/02/05 13:09:40;;;;;;;10.57;2.75;;;;;;;;;;5031918;28;20045;-88
2024/02/05 13:12:08;;;;;;;16.92;2.05;;;;;;;;;;5007847;28;20060;-88
2024/02/05 13:14:35;;;;;;;8.45;2.13;;;;;;;;;;5008353;28;20041;-87
2024/02/05 13:17:05;;;;;;;6.03;1.92;;;;;;;;;;5028074;28;20065;-87
2024/02/05 13:19:34;;;;;;;11.65;2.67;;;;;;;;;;5005810;28;20073;-87
2024/02/05 13:22:03;;;;;;;8.50;1.98;;;;;;;;;;5008012;28;20058;-87
2024/02/05 13:24:30;;;;;;;8.18;1.98;;;;;;;;;;5007013;28;20053;-88
2024/02/05 13:26:58;;;;;;;10.05;1.55;;;;;;;;;;5021735;28;20050;-86
2024/02/05 13:29:26;;;;;;;6.55;2.25;;;;;;;;;;5005810;28;20046;-87
2024/02/05 13:31:53;;;;;;;12.27;1.88;;;;;;;;;;5007745;28;20063;-88
2024/02/05 13:34:23;;;;;;;15.23;2.47;;;;;;;;;;5024704;28;20446;-87
2024/02/05 13:36:50;;;;;;;5.97;2.33;;;;;;;;;;5006966;28;20060;-86
2024/02/05 13:39:18;;;;;;;6.75;1.92;;;;;;;;;;5033278;28;20049;-87
2024/02/05 13:41:45;;;;;;;7.90;2.00;;;;;;;;;;5004737;28;20057;-88
2024/02/05 13:44:13;;;;;;;7.60;1.90;;;;;;;;;;5021437;28;20073;-87
2024/02/05 13:46:41;;;;;;;8.25;2.22;;;;;;;;;;5010625;28;20053;-87
2024/02/05 13:49:08;;;;;;;5.38;1.83;;;;;;;;;;5004051;28;20050;-90
2024/02/05 13:51:36;;;;;;;9.02;2.17;;;;;;;;;;5003454;28;20060;-86
2024/02/05 13:54:03;;;;;;;5.35;1.85;;;;;;;;;;5004483;28;20096;-87
2024/02/05 13:56:30;;;;;;;9.63;2.10;;;;;;;;;;5004773;28;20061;-90
2024/02/05 13:58:57;;;;;;;6.15;1.90;;;;;;;;;;5024922;28;20049;-86
2024/02/05 14:01:25;;;;;;;10.05;2.22;;;;;;;;;;5007559;28;20107;-91
2024/02/05 14:03:53;;;;;;;5.25;1.83;;;;;;;;;;5004318;28;20053;-87
2024/02/05 14:06:21;;;;;;;12.45;2.10;;;;;;;;;;5003588;28;20538;-87
2024/02/05 14:08:49;;;;;;;5.60;1.70;;;;;;;;;;5007502;28;20053;-87
2024/02/05 14:11:16;;;;;;;3.67;1.85;;;;;;;;;;5007856;28;20045;-87
2024/02/05 14:13:44;;;;;;;14.35;1.95;;;;;;;;;;5007542;28;20049;-86
2024/02/05 14:16:11;;;;;;;15.95;2.00;;;;;;;;;;5006717;28;20054;-88
2024/02/05 14:18:39;;;;;;;6.22;1.80;;;;;;;;;;5006658;28;20054;-91
2024/02/05 14:21:07;;;;;;;8.50;2.58;;;;;;;;;;5024905;28;20046;-87
2024/02/05 14:23:34;;;;;;;4.95;1.67;;;;;;;;;;5005804;28;20099;-87
2024/02/05 14:26:01;;;;;;;7.80;2.00;;;;;;;;;;5021110;28;20046;-87
2024/02/05 14:28:29;;;;;;;8.20;1.27;;;;;;;;;;5004452;28;20129;-87
2024/02/05 14:30:56;;;;;;;6.88;1.92;;;;;;;;;;5007289;28;20103;-87
2024/02/05 14:33:23;;;;;;;5.60;1.95;;;;;;;;;;5006945;28;20509;-86
2024/02/05 14:35:51;;;;;;;7.97;1.38;;;;;;;;;;5003611;28;20415;-86
2024/02/05 14:38:18;;;;;;;10.73;2.33;;;;;;;;;;5021304;28;20414;-87
2024/02/05 14:40:46;;;;;;;5.28;1.80;;;;;;;;;;5041732;28;20053;-88
2024/02/05 14:43:13;;;;;;;13.48;2.03;;;;;;;;;;5017758;28;20045;-88
2024/02/05 14:45:40;;;;;;;12.38;2.45;;;;;;;;;;5009720;28;20085;-88
2024/02/05 14:48:08;;;;;;;9.07;1.98;;;;;;;;;;5010602;28;20138;-87